createdAt,value
2023-02-08T00:01:46.139Z,7.60
2023-02-08T00:04:15.499Z,7.20
2023-02-08T00:06:45.788Z,7.33
2023-02-08T00:09:15.377Z,7.17
2023-02-08T00:11:44.667Z,7.95
2023-02-08T00:14:14.044Z,7.87
2023-02-08T00:16:43.273Z,7.80
2023-02-08T00:19:14.250Z,7.50
2023-02-08T00:21:43.663Z,8.28
2023-02-08T00:24:13.746Z,7.65
2023-02-08T00:26:43.325Z,7.70
2023-02-08T00:29:12.591Z,7.33
2023-02-08T00:31:41.647Z,8.70
2023-02-08T00:34:11.092Z,8.15
2023-02-08T00:36:42.948Z,8.78
2023-02-08T00:39:13.018Z,8.65
2023-02-08T00:41:44.386Z,9.25
2023-02-08T00:44:14.619Z,8.63
2023-02-08T00:46:44.336Z,8.38
2023-02-08T00:49:13.662Z,9.15
2023-02-08T00:51:43.701Z,9.15
2023-02-08T00:54:15.511Z,8.50
2023-02-08T00:56:44.489Z,8.98
2023-02-08T00:59:13.811Z,10.00
2023-02-08T01:01:44.684Z,10.30
2023-02-08T01:04:13.765Z,8.90
2023-02-08T01:06:44.212Z,8.65
2023-02-08T01:09:14.147Z,9.23
2023-02-08T01:11:45.219Z,8.33
2023-02-08T01:14:14.560Z,8.05
2023-02-08T01:16:43.936Z,7.65
2023-02-08T01:19:12.887Z,8.15
2023-02-08T01:21:42.299Z,8.20
2023-02-08T01:24:11.383Z,7.55
2023-02-08T01:26:40.823Z,7.97
2023-02-08T01:29:13.596Z,8.25
2023-02-08T01:31:43.560Z,7.97
2023-02-08T01:34:12.992Z,7.28
2023-02-08T01:36:43.499Z,8.25
2023-02-08T01:39:12.431Z,8.75
2023-02-08T01:41:44.081Z,8.88
2023-02-08T01:44:18.865Z,7.80
2023-02-08T01:46:51.198Z,8.40
2023-02-08T01:49:26.792Z,8.10
2023-02-08T01:52:03.757Z,7.80
2023-02-08T01:54:38.202Z,7.45
2023-02-08T01:57:07.429Z,8.20
2023-02-08T01:59:41.431Z,7.83
2023-02-08T02:02:13.042Z,7.65
2023-02-08T02:04:43.052Z,8.18
2023-02-08T02:07:11.794Z,7.95
2023-02-08T02:09:52.262Z,7.20
2023-02-08T02:12:22.293Z,8.00
2023-02-08T02:14:52.711Z,8.80
2023-02-08T02:17:22.176Z,8.50
2023-02-08T02:20:20.346Z,7.97
2023-02-08T02:23:28.043Z,9.10
2023-02-08T02:26:39.561Z,7.87
2023-02-08T02:29:56.609Z,8.00
2023-02-08T02:32:42.758Z,7.75
2023-02-08T02:35:34.977Z,7.92
2023-02-08T02:38:12.808Z,8.25
2023-02-08T02:41:23.138Z,7.83
2023-02-08T02:43:55.934Z,8.10
2023-02-08T02:46:28.830Z,8.35
2023-02-08T02:49:20.878Z,7.95
2023-02-08T02:52:12.192Z,8.15
2023-02-08T02:54:51.685Z,8.60
2023-02-08T02:57:26.814Z,9.00
2023-02-08T02:59:57.794Z,9.80
2023-02-08T03:02:27.614Z,9.05
2023-02-08T03:04:57.855Z,8.75
2023-02-08T03:07:35.451Z,9.38
2023-02-08T03:13:13.436Z,9.45
2023-02-08T03:16:18.590Z,9.78
2023-02-08T03:19:10.657Z,9.43
2023-02-08T03:21:50.990Z,8.90
2023-02-08T03:24:43.614Z,9.60
2023-02-08T03:27:37.570Z,9.33
2023-02-08T03:30:14.895Z,8.55
2023-02-08T03:33:19.100Z,8.95
2023-02-08T03:35:57.134Z,8.75
2023-02-08T03:38:34.300Z,8.10
2023-02-08T03:43:55.217Z,7.85
2023-02-08T03:46:34.899Z,8.20
2023-02-08T03:49:09.435Z,8.60
2023-02-08T03:51:41.582Z,8.65
2023-02-08T03:54:21.052Z,9.03
2023-02-08T03:57:09.721Z,8.95
2023-02-08T03:59:42.420Z,8.00
2023-02-08T04:02:14.465Z,8.38
2023-02-08T04:04:46.622Z,8.80
2023-02-08T04:07:17.176Z,8.00
2023-02-08T04:09:45.983Z,9.98
2023-02-08T04:12:14.913Z,8.95
2023-02-08T04:14:43.886Z,8.83
2023-02-08T04:17:14.673Z,9.43
2023-02-08T04:19:44.238Z,8.40
2023-02-08T04:22:13.052Z,8.83
2023-02-08T04:24:43.115Z,8.83
2023-02-08T04:27:12.780Z,8.23
2023-02-08T04:29:42.157Z,8.68
2023-02-08T04:32:11.642Z,9.68
2023-02-08T04:34:41.119Z,8.90
2023-02-08T04:37:11.667Z,8.50
2023-02-08T04:39:40.632Z,8.40
2023-02-08T04:42:09.213Z,8.18
2023-02-08T04:44:39.017Z,9.05
2023-02-08T04:47:07.923Z,9.75
2023-02-08T04:49:36.973Z,8.20
2023-02-08T04:52:06.037Z,8.98
2023-02-08T04:54:35.665Z,8.95
2023-02-08T04:57:04.702Z,9.43
2023-02-08T04:59:34.402Z,9.35
2023-02-08T05:02:04.209Z,9.35
2023-02-08T05:04:34.021Z,9.05
2023-02-08T05:07:05.833Z,9.70
2023-02-08T05:09:34.799Z,8.80
2023-02-08T05:12:03.650Z,9.30
2023-02-08T05:14:33.224Z,9.85
2023-02-08T05:17:02.207Z,8.65
2023-02-08T05:19:31.473Z,10.10
2023-02-08T05:22:01.289Z,8.30
2023-02-08T05:24:34.333Z,9.30
2023-02-08T05:27:03.709Z,9.85
2023-02-08T05:29:32.611Z,8.23
2023-02-08T05:32:01.615Z,11.68
2023-02-08T05:34:31.343Z,9.08
2023-02-08T05:37:00.898Z,8.63
2023-02-08T05:39:30.352Z,11.12
2023-02-08T05:41:59.062Z,9.33
2023-02-08T05:44:28.099Z,9.55
2023-02-08T05:46:56.870Z,9.30
2023-02-08T05:49:26.907Z,9.28
2023-02-08T05:51:55.707Z,9.73
2023-02-08T05:54:24.858Z,8.75
2023-02-08T05:56:53.819Z,8.78
2023-02-08T05:59:22.667Z,10.25
2023-02-08T06:01:51.583Z,10.40
2023-02-08T06:04:20.374Z,9.75
2023-02-08T06:06:50.927Z,10.08
2023-02-08T06:09:21.545Z,9.45
2023-02-08T06:11:51.621Z,9.10
2023-02-08T06:14:21.335Z,9.78
2023-02-08T06:16:50.399Z,9.25
2023-02-08T06:19:20.568Z,9.88
2023-02-08T06:21:49.347Z,10.32
2023-02-08T06:24:18.647Z,8.65
2023-02-08T06:26:49.062Z,9.85
2023-02-08T06:29:19.836Z,8.83
2023-02-08T06:31:49.014Z,10.05
2023-02-08T06:34:17.631Z,10.23
2023-02-08T06:36:46.275Z,9.25
2023-02-08T06:39:15.229Z,10.03
2023-02-08T06:41:44.216Z,9.35
2023-02-08T06:44:13.156Z,9.85
2023-02-08T06:46:43.737Z,9.88
2023-02-08T06:49:12.422Z,8.85
2023-02-08T06:51:42.537Z,8.78
2023-02-08T06:54:11.288Z,10.08
2023-02-08T06:56:42.535Z,9.83
2023-02-08T06:59:13.059Z,9.95
2023-02-08T07:01:42.476Z,9.85
2023-02-08T10:07:51.586Z,11.88
2023-02-08T10:10:47.706Z,11.33
2023-02-08T10:13:41.407Z,10.95
2023-02-08T10:16:32.033Z,10.95
2023-02-08T10:19:38.080Z,12.03
2023-02-08T10:22:32.283Z,11.80
2023-02-08T10:25:32.316Z,9.23
2023-02-08T10:28:34.370Z,11.18
2023-02-08T10:31:11.906Z,10.72
2023-02-08T10:34:02.421Z,9.58
2023-02-08T10:36:38.943Z,12.30
2023-02-08T10:39:27.508Z,11.40
2023-02-08T10:42:03.409Z,11.22
2023-02-08T10:44:58.713Z,10.53
2023-02-08T10:47:42.742Z,11.70
2023-02-08T10:50:38.048Z,12.37
2023-02-08T10:53:09.308Z,11.28
2023-02-08T10:55:47.081Z,11.35
2023-02-08T10:58:20.111Z,12.18
2023-02-08T11:00:55.057Z,11.28
2023-02-08T11:03:31.399Z,12.03
2023-02-08T11:05:58.637Z,11.18
2023-02-08T11:08:30.264Z,13.35
2023-02-08T11:11:11.972Z,13.20
2023-02-08T11:13:50.923Z,11.08
2023-02-08T11:16:31.908Z,11.33
2023-02-08T11:19:07.410Z,11.90
2023-02-08T11:21:40.586Z,11.65
2023-02-08T11:24:30.256Z,12.30
2023-02-08T11:27:02.682Z,11.95
2023-02-08T11:29:32.538Z,11.93
2023-02-08T11:32:06.471Z,12.63
2023-02-08T11:34:43.752Z,11.80
2023-02-08T11:37:31.861Z,13.00
2023-02-08T11:40:07.060Z,12.13
2023-02-08T11:42:40.697Z,11.43
2023-02-08T11:45:20.915Z,12.23
2023-02-08T11:47:49.667Z,10.82
2023-02-08T11:50:27.107Z,11.12
2023-02-08T11:52:59.405Z,11.50
2023-02-08T11:55:30.946Z,11.18
2023-02-08T11:58:25.717Z,12.07
2023-02-08T12:01:06.800Z,11.20
2023-02-08T12:03:40.416Z,10.55
2023-02-08T12:06:38.544Z,12.73
2023-02-08T12:12:03.602Z,10.75
2023-02-08T12:15:09.181Z,10.50
2023-02-08T12:18:14.671Z,12.05
2023-02-08T12:20:47.651Z,10.90
2023-02-08T12:23:32.432Z,9.98
2023-02-08T12:26:25.657Z,9.18
2023-02-08T12:29:18.358Z,9.75
2023-02-08T12:32:14.078Z,9.23
2023-02-08T12:35:03.997Z,10.85
2023-02-08T12:38:11.199Z,10.00
2023-02-08T12:40:55.173Z,10.85
2023-02-08T12:43:32.897Z,9.90
2023-02-08T12:46:29.593Z,10.65
2023-02-08T12:49:45.016Z,10.72
2023-02-08T12:52:29.264Z,11.60
2023-02-08T12:55:03.894Z,8.48
2023-02-08T12:57:33.043Z,9.35
2023-02-08T13:00:10.802Z,9.58
2023-02-08T13:02:49.115Z,12.05
2023-02-08T13:05:20.372Z,11.12
2023-02-08T13:07:51.462Z,9.23
2023-02-08T13:10:31.683Z,9.68
2023-02-08T13:13:23.280Z,9.58
2023-02-08T13:16:01.164Z,9.33
2023-02-08T13:18:35.475Z,10.15
2023-02-08T13:21:08.361Z,8.93
2023-02-08T13:23:52.366Z,10.50
2023-02-08T13:26:26.399Z,9.83
2023-02-08T13:28:58.380Z,9.30
2023-02-08T13:31:35.750Z,9.40
2023-02-08T13:34:29.529Z,7.05
2023-02-08T13:37:01.809Z,8.50
2023-02-08T13:39:40.099Z,8.53
2023-02-08T13:42:22.387Z,9.95
2023-02-08T13:44:55.214Z,9.38
2023-02-08T13:47:41.261Z,7.97
2023-02-08T13:50:38.184Z,8.40
2023-02-08T13:53:07.515Z,8.80
2023-02-08T13:55:56.321Z,8.48
2023-02-08T13:58:49.996Z,8.33
2023-02-08T14:01:24.448Z,9.18
2023-02-08T14:04:21.962Z,9.28
2023-02-08T14:07:29.021Z,9.10
2023-02-08T14:10:30.444Z,8.43
2023-02-08T14:13:24.883Z,10.43
2023-02-08T14:16:38.446Z,9.60
2023-02-08T14:19:24.190Z,9.10
2023-02-08T14:22:16.420Z,8.95
2023-02-08T14:24:52.337Z,8.23
2023-02-08T14:27:30.021Z,8.73
2023-02-08T14:30:05.016Z,7.90
2023-02-08T14:32:38.231Z,7.80
2023-02-08T14:35:25.477Z,8.53
2023-02-08T14:38:23.007Z,7.67
2023-02-08T14:40:54.851Z,7.00
2023-02-08T14:43:40.070Z,7.33
2023-02-08T14:46:42.981Z,6.40
2023-02-08T14:49:18.152Z,6.72
2023-02-08T14:52:00.721Z,6.08
2023-02-08T14:54:43.407Z,8.88
2023-02-08T14:57:34.730Z,7.10
2023-02-08T15:00:12.656Z,8.38
2023-02-08T15:02:43.555Z,7.12
2023-02-08T15:05:25.317Z,10.32
2023-02-08T15:08:00.573Z,10.48
2023-02-08T15:10:30.080Z,10.25
2023-02-08T15:13:04.002Z,17.92
2023-02-08T15:15:41.537Z,10.63
2023-02-08T15:18:19.790Z,10.45
2023-02-08T15:21:06.410Z,10.28
2023-02-08T15:23:36.424Z,12.05
2023-02-08T15:26:08.911Z,12.82
2023-02-08T15:28:37.895Z,13.72
2023-02-08T15:31:09.946Z,11.35
2023-02-08T15:33:41.456Z,14.45
2023-02-08T15:36:33.002Z,14.83
2023-02-08T15:39:06.542Z,15.23
2023-02-08T15:41:35.501Z,12.20
2023-02-08T15:44:19.148Z,10.45
2023-02-08T15:46:48.487Z,10.68
2023-02-08T15:49:28.985Z,11.12
2023-02-08T15:51:57.652Z,11.93
2023-02-08T15:54:26.417Z,12.15
2023-02-08T15:57:08.524Z,12.58
2023-02-08T15:59:39.589Z,13.25
2023-02-08T16:02:32.321Z,14.00
2023-02-08T16:05:02.514Z,12.47
